sensor_id;sensor_type;location;lat;lon;timestamp;P1;durP1;ratioP1;P2;durP2;ratioP2
21848;SDS011;11089;49.852;19.700;2023-01-23T00:01:33;45.72;;;18.58;;
21848;SDS011;11089;49.852;19.700;2023-01-23T00:04:34;47.53;;;19.23;;
21848;SDS011;11089;49.852;19.700;2023-01-23T00:07:35;48.97;;;19.52;;
21848;SDS011;11089;49.852;19.700;2023-01-23T00:10:37;50.15;;;19.58;;
21848;SDS011;11089;49.852;19.700;2023-01-23T00:13:38;46.60;;;19.33;;
21848;SDS011;11089;49.852;19.700;2023-01-23T00:16:39;47.75;;;17.30;;
21848;SDS011;11089;49.852;19.700;2023-01-23T00:19:40;41.78;;;17.88;;
21848;SDS011;11089;49.852;19.700;2023-01-23T00:22:41;48.20;;;20.25;;
21848;SDS011;11089;49.852;19.700;2023-01-23T00:25:42;46.60;;;18.58;;
21848;SDS011;11089;49.852;19.700;2023-01-23T00:28:43;47.58;;;19.30;;
21848;SDS011;11089;49.852;19.700;2023-01-23T00:31:45;51.63;;;21.38;;
21848;SDS011;11089;49.852;19.700;2023-01-23T00:34:46;44.50;;;18.00;;
21848;SDS011;11089;49.852;19.700;2023-01-23T00:37:47;50.15;;;19.33;;
21848;SDS011;11089;49.852;19.700;2023-01-23T00:40:48;52.28;;;21.40;;
21848;SDS011;11089;49.852;19.700;2023-01-23T00:43:49;50.00;;;19.73;;
21848;SDS011;11089;49.852;19.700;2023-01-23T00:46:51;53.78;;;20.67;;
21848;SDS011;11089;49.852;19.700;2023-01-23T00:49:52;50.80;;;20.45;;
21848;SDS011;11089;49.852;19.700;2023-01-23T00:52:54;53.55;;;20.67;;
21848;SDS011;11089;49.852;19.700;2023-01-23T00:55:55;56.55;;;20.17;;
21848;SDS011;11089;49.852;19.700;2023-01-23T00:58:56;50.88;;;21.10;;
21848;SDS011;11089;49.852;19.700;2023-01-23T01:01:57;49.88;;;17.85;;
21848;SDS011;11089;49.852;19.700;2023-01-23T01:04:58;54.20;;;19.20;;
21848;SDS011;11089;49.852;19.700;2023-01-23T01:07:59;49.55;;;19.33;;
21848;SDS011;11089;49.852;19.700;2023-01-23T01:10:59;50.65;;;18.67;;
21848;SDS011;11089;49.852;19.700;2023-01-23T01:14:00;51.78;;;20.20;;
21848;SDS011;11089;49.852;19.700;2023-01-23T01:17:01;48.35;;;18.50;;
21848;SDS011;11089;49.852;19.700;2023-01-23T01:20:03;50.35;;;19.15;;
21848;SDS011;11089;49.852;19.700;2023-01-23T01:23:05;44.53;;;17.85;;
21848;SDS011;11089;49.852;19.700;2023-01-23T01:26:06;49.63;;;20.55;;
21848;SDS011;11089;49.852;19.700;2023-01-23T01:29:07;42.45;;;17.20;;
21848;SDS011;11089;49.852;19.700;2023-01-23T01:32:08;47.03;;;17.67;;
21848;SDS011;11089;49.852;19.700;2023-01-23T01:35:09;40.30;;;16.58;;
21848;SDS011;11089;49.852;19.700;2023-01-23T01:38:11;43.88;;;17.40;;
21848;SDS011;11089;49.852;19.700;2023-01-23T01:41:12;44.63;;;17.08;;
21848;SDS011;11089;49.852;19.700;2023-01-23T01:44:18;47.42;;;17.13;;
21848;SDS011;11089;49.852;19.700;2023-01-23T01:47:21;43.65;;;17.75;;
21848;SDS011;11089;49.852;19.700;2023-01-23T01:50:23;45.60;;;17.00;;
21848;SDS011;11089;49.852;19.700;2023-01-23T01:53:24;42.47;;;15.60;;
21848;SDS011;11089;49.852;19.700;2023-01-23T01:56:28;38.30;;;14.07;;
21848;SDS011;11089;49.852;19.700;2023-01-23T01:59:33;40.53;;;15.40;;
21848;SDS011;11089;49.852;19.700;2023-01-23T02:02:39;33.17;;;13.18;;
21848;SDS011;11089;49.852;19.700;2023-01-23T02:05:45;35.72;;;13.35;;
21848;SDS011;11089;49.852;19.700;2023-01-23T02:08:57;36.33;;;14.20;;
21848;SDS011;11089;49.852;19.700;2023-01-23T02:12:12;35.22;;;14.10;;
21848;SDS011;11089;49.852;19.700;2023-01-23T02:15:13;33.90;;;13.25;;
21848;SDS011;11089;49.852;19.700;2023-01-23T02:18:15;32.40;;;12.95;;
21848;SDS011;11089;49.852;19.700;2023-01-23T02:21:18;36.15;;;13.50;;
21848;SDS011;11089;49.852;19.700;2023-01-23T02:24:41;33.13;;;12.63;;
21848;SDS011;11089;49.852;19.700;2023-01-23T02:27:48;33.08;;;12.98;;
21848;SDS011;11089;49.852;19.700;2023-01-23T02:30:49;32.03;;;12.02;;
21848;SDS011;11089;49.852;19.700;2023-01-23T02:33:51;31.08;;;12.80;;
21848;SDS011;11089;49.852;19.700;2023-01-23T02:36:54;31.40;;;12.32;;
21848;SDS011;11089;49.852;19.700;2023-01-23T02:39:55;33.40;;;13.63;;
21848;SDS011;11089;49.852;19.700;2023-01-23T02:42:56;29.10;;;10.98;;
21848;SDS011;11089;49.852;19.700;2023-01-23T02:46:02;32.25;;;11.50;;
21848;SDS011;11089;49.852;19.700;2023-01-23T02:49:08;23.25;;;10.63;;
21848;SDS011;11089;49.852;19.700;2023-01-23T02:52:09;16.70;;;7.30;;
21848;SDS011;11089;49.852;19.700;2023-01-23T02:55:10;17.52;;;7.82;;
21848;SDS011;11089;49.852;19.700;2023-01-23T02:58:11;17.90;;;8.35;;
21848;SDS011;11089;49.852;19.700;2023-01-23T03:01:26;20.73;;;8.52;;
21848;SDS011;11089;49.852;19.700;2023-01-23T03:04:27;19.95;;;8.18;;
21848;SDS011;11089;49.852;19.700;2023-01-23T03:07:28;19.48;;;8.52;;
21848;SDS011;11089;49.852;19.700;2023-01-23T03:10:29;16.40;;;7.85;;
21848;SDS011;11089;49.852;19.700;2023-01-23T03:13:30;17.95;;;7.18;;
21848;SDS011;11089;49.852;19.700;2023-01-23T03:16:32;19.55;;;8.13;;
21848;SDS011;11089;49.852;19.700;2023-01-23T03:19:33;17.85;;;7.30;;
21848;SDS011;11089;49.852;19.700;2023-01-23T03:22:34;16.25;;;7.30;;
21848;SDS011;11089;49.852;19.700;2023-01-23T03:25:35;17.73;;;6.80;;
21848;SDS011;11089;49.852;19.700;2023-01-23T03:28:36;14.15;;;7.65;;
21848;SDS011;11089;49.852;19.700;2023-01-23T03:31:51;20.60;;;7.40;;
21848;SDS011;11089;49.852;19.700;2023-01-23T03:34:52;17.42;;;6.57;;
21848;SDS011;11089;49.852;19.700;2023-01-23T03:37:53;14.60;;;7.25;;
21848;SDS011;11089;49.852;19.700;2023-01-23T03:40:54;16.52;;;7.47;;
21848;SDS011;11089;49.852;19.700;2023-01-23T03:44:09;14.50;;;6.78;;
21848;SDS011;11089;49.852;19.700;2023-01-23T03:47:10;15.23;;;6.70;;
21848;SDS011;11089;49.852;19.700;2023-01-23T03:50:11;15.40;;;6.60;;
21848;SDS011;11089;49.852;19.700;2023-01-23T03:53:12;14.30;;;6.15;;
21848;SDS011;11089;49.852;19.700;2023-01-23T03:56:13;15.10;;;6.65;;
21848;SDS011;11089;49.852;19.700;2023-01-23T03:59:14;14.15;;;6.28;;
21848;SDS011;11089;49.852;19.700;2023-01-23T04:02:15;14.10;;;6.15;;
21848;SDS011;11089;49.852;19.700;2023-01-23T04:05:16;13.25;;;6.63;;
21848;SDS011;11089;49.852;19.700;2023-01-23T04:08:17;14.20;;;6.88;;
21848;SDS011;11089;49.852;19.700;2023-01-23T04:11:18;13.73;;;6.18;;
21848;SDS011;11089;49.852;19.700;2023-01-23T04:14:20;15.68;;;7.20;;
21848;SDS011;11089;49.852;19.700;2023-01-23T04:17:22;13.30;;;6.50;;
21848;SDS011;11089;49.852;19.700;2023-01-23T04:20:23;16.35;;;7.05;;
21848;SDS011;11089;49.852;19.700;2023-01-23T04:23:24;13.85;;;6.63;;
21848;SDS011;11089;49.852;19.700;2023-01-23T04:26:25;16.02;;;7.00;;
21848;SDS011;11089;49.852;19.700;2023-01-23T04:29:26;17.73;;;7.05;;
21848;SDS011;11089;49.852;19.700;2023-01-23T04:32:27;14.68;;;7.05;;
21848;SDS011;11089;49.852;19.700;2023-01-23T04:35:28;13.93;;;7.40;;
21848;SDS011;11089;49.852;19.700;2023-01-23T04:38:29;13.32;;;6.53;;
21848;SDS011;11089;49.852;19.700;2023-01-23T04:41:32;13.00;;;6.35;;
21848;SDS011;11089;49.852;19.700;2023-01-23T04:44:33;12.13;;;6.13;;
21848;SDS011;11089;49.852;19.700;2023-01-23T04:47:34;14.60;;;5.88;;
21848;SDS011;11089;49.852;19.700;2023-01-23T04:50:36;13.15;;;6.35;;
21848;SDS011;11089;49.852;19.700;2023-01-23T04:53:37;15.32;;;6.78;;
21848;SDS011;11089;49.852;19.700;2023-01-23T04:56:38;18.55;;;7.60;;
21848;SDS011;11089;49.852;19.700;2023-01-23T04:59:39;16.08;;;7.53;;
21848;SDS011;11089;49.852;19.700;2023-01-23T05:02:40;14.57;;;6.85;;
21848;SDS011;11089;49.852;19.700;2023-01-23T05:05:41;17.60;;;8.50;;
21848;SDS011;11089;49.852;19.700;2023-01-23T05:08:43;21.58;;;9.77;;
21848;SDS011;11089;49.852;19.700;2023-01-23T05:11:44;22.67;;;9.95;;
21848;SDS011;11089;49.852;19.700;2023-01-23T05:14:45;15.07;;;7.50;;
21848;SDS011;11089;49.852;19.700;2023-01-23T05:17:47;15.65;;;6.70;;
21848;SDS011;11089;49.852;19.700;2023-01-23T05:20:48;13.98;;;6.95;;
21848;SDS011;11089;49.852;19.700;2023-01-23T05:23:49;21.55;;;9.38;;
21848;SDS011;11089;49.852;19.700;2023-01-23T05:26:50;17.98;;;8.35;;
21848;SDS011;11089;49.852;19.700;2023-01-23T05:29:51;21.38;;;8.70;;
21848;SDS011;11089;49.852;19.700;2023-01-23T05:32:52;26.60;;;11.43;;
21848;SDS011;11089;49.852;19.700;2023-01-23T05:35:56;22.95;;;10.55;;
21848;SDS011;11089;49.852;19.700;2023-01-23T05:38:58;28.95;;;11.90;;
21848;SDS011;11089;49.852;19.700;2023-01-23T05:41:59;27.17;;;12.13;;
21848;SDS011;11089;49.852;19.700;2023-01-23T05:45:00;30.88;;;14.30;;
21848;SDS011;11089;49.852;19.700;2023-01-23T05:48:01;28.20;;;14.32;;
21848;SDS011;11089;49.852;19.700;2023-01-23T05:51:02;32.25;;;13.18;;
21848;SDS011;11089;49.852;19.700;2023-01-23T05:54:03;26.80;;;12.00;;
21848;SDS011;11089;49.852;19.700;2023-01-23T05:57:04;28.98;;;13.93;;
21848;SDS011;11089;49.852;19.700;2023-01-23T06:00:06;27.17;;;13.10;;
21848;SDS011;11089;49.852;19.700;2023-01-23T06:03:07;30.38;;;13.55;;
21848;SDS011;11089;49.852;19.700;2023-01-23T06:06:08;27.83;;;13.20;;
21848;SDS011;11089;49.852;19.700;2023-01-23T06:09:10;28.95;;;13.10;;
21848;SDS011;11089;49.852;19.700;2023-01-23T06:12:11;26.23;;;12.20;;
21848;SDS011;11089;49.852;19.700;2023-01-23T06:15:12;33.15;;;15.55;;
21848;SDS011;11089;49.852;19.700;2023-01-23T06:18:13;29.20;;;15.27;;
21848;SDS011;11089;49.852;19.700;2023-01-23T06:21:14;33.35;;;15.20;;
21848;SDS011;11089;49.852;19.700;2023-01-23T06:24:17;32.75;;;14.13;;
21848;SDS011;11089;49.852;19.700;2023-01-23T06:27:18;31.83;;;15.20;;
21848;SDS011;11089;49.852;19.700;2023-01-23T06:30:19;36.90;;;15.52;;
21848;SDS011;11089;49.852;19.700;2023-01-23T06:33:20;38.90;;;17.73;;
21848;SDS011;11089;49.852;19.700;2023-01-23T06:36:21;37.53;;;16.30;;
21848;SDS011;11089;49.852;19.700;2023-01-23T06:39:22;37.80;;;17.23;;
21848;SDS011;11089;49.852;19.700;2023-01-23T06:42:23;45.60;;;21.00;;
21848;SDS011;11089;49.852;19.700;2023-01-23T06:45:24;34.25;;;16.27;;
21848;SDS011;11089;49.852;19.700;2023-01-23T06:48:25;33.33;;;15.90;;
21848;SDS011;11089;49.852;19.700;2023-01-23T06:51:26;35.50;;;16.65;;
21848;SDS011;11089;49.852;19.700;2023-01-23T06:54:27;54.08;;;23.45;;
21848;SDS011;11089;49.852;19.700;2023-01-23T06:57:28;81.57;;;28.67;;
21848;SDS011;11089;49.852;19.700;2023-01-23T07:00:28;85.35;;;32.38;;
21848;SDS011;11089;49.852;19.700;2023-01-23T07:03:29;89.78;;;34.47;;
21848;SDS011;11089;49.852;19.700;2023-01-23T07:06:30;71.43;;;30.55;;
21848;SDS011;11089;49.852;19.700;2023-01-23T07:09:31;76.03;;;29.77;;
21848;SDS011;11089;49.852;19.700;2023-01-23T07:12:33;91.28;;;35.25;;
21848;SDS011;11089;49.852;19.700;2023-01-23T07:15:34;85.78;;;34.15;;
21848;SDS011;11089;49.852;19.700;2023-01-23T07:18:36;82.85;;;34.63;;
21848;SDS011;11089;49.852;19.700;2023-01-23T07:21:37;90.18;;;35.72;;
21848;SDS011;11089;49.852;19.700;2023-01-23T07:24:38;89.38;;;34.83;;
21848;SDS011;11089;49.852;19.700;2023-01-23T07:27:39;72.40;;;27.52;;
21848;SDS011;11089;49.852;19.700;2023-01-23T07:30:40;60.03;;;22.33;;
21848;SDS011;11089;49.852;19.700;2023-01-23T07:33:41;73.90;;;25.88;;
21848;SDS011;11089;49.852;19.700;2023-01-23T07:36:42;49.28;;;18.52;;
21848;SDS011;11089;49.852;19.700;2023-01-23T07:39:43;46.45;;;18.55;;
21848;SDS011;11089;49.852;19.700;2023-01-23T07:42:44;58.38;;;21.35;;
21848;SDS011;11089;49.852;19.700;2023-01-23T07:45:45;100.82;;;34.83;;
21848;SDS011;11089;49.852;19.700;2023-01-23T07:48:46;152.65;;;48.25;;
21848;SDS011;11089;49.852;19.700;2023-01-23T07:51:47;306.25;;;70.35;;
21848;SDS011;11089;49.852;19.700;2023-01-23T07:54:48;212.77;;;65.82;;
21848;SDS011;11089;49.852;19.700;2023-01-23T07:57:49;148.95;;;47.88;;
21848;SDS011;11089;49.852;19.700;2023-01-23T08:00:50;324.90;;;68.50;;
21848;SDS011;11089;49.852;19.700;2023-01-23T08:03:51;230.85;;;67.13;;
21848;SDS011;11089;49.852;19.700;2023-01-23T08:06:53;213.27;;;61.75;;
21848;SDS011;11089;49.852;19.700;2023-01-23T08:09:54;175.68;;;53.22;;
21848;SDS011;11089;49.852;19.700;2023-01-23T08:12:55;153.57;;;51.05;;
21848;SDS011;11089;49.852;19.700;2023-01-23T08:15:58;81.43;;;30.30;;
21848;SDS011;11089;49.852;19.700;2023-01-23T08:18:59;68.22;;;24.80;;
21848;SDS011;11089;49.852;19.700;2023-01-23T08:22:00;53.15;;;21.00;;
21848;SDS011;11089;49.852;19.700;2023-01-23T08:25:01;37.95;;;16.35;;
21848;SDS011;11089;49.852;19.700;2023-01-23T08:28:02;44.45;;;16.23;;
21848;SDS011;11089;49.852;19.700;2023-01-23T08:31:05;36.20;;;15.75;;
21848;SDS011;11089;49.852;19.700;2023-01-23T08:34:08;29.25;;;13.40;;
21848;SDS011;11089;49.852;19.700;2023-01-23T08:37:09;32.00;;;14.55;;
21848;SDS011;11089;49.852;19.700;2023-01-23T08:40:10;39.30;;;16.48;;
21848;SDS011;11089;49.852;19.700;2023-01-23T08:43:11;44.10;;;17.85;;
21848;SDS011;11089;49.852;19.700;2023-01-23T08:46:13;42.58;;;18.45;;
21848;SDS011;11089;49.852;19.700;2023-01-23T08:49:14;43.75;;;18.08;;
21848;SDS011;11089;49.852;19.700;2023-01-23T08:52:18;44.10;;;17.30;;
21848;SDS011;11089;49.852;19.700;2023-01-23T08:55:19;34.55;;;15.30;;
21848;SDS011;11089;49.852;19.700;2023-01-23T08:58:20;29.95;;;13.85;;
21848;SDS011;11089;49.852;19.700;2023-01-23T09:01:22;35.67;;;16.30;;
21848;SDS011;11089;49.852;19.700;2023-01-23T09:04:24;32.05;;;14.73;;
21848;SDS011;11089;49.852;19.700;2023-01-23T09:07:25;26.38;;;12.20;;
21848;SDS011;11089;49.852;19.700;2023-01-23T09:10:26;26.65;;;12.35;;
21848;SDS011;11089;49.852;19.700;2023-01-23T09:13:27;27.33;;;12.40;;
21848;SDS011;11089;49.852;19.700;2023-01-23T09:16:28;23.50;;;11.75;;
21848;SDS011;11089;49.852;19.700;2023-01-23T09:19:29;24.95;;;11.77;;
21848;SDS011;11089;49.852;19.700;2023-01-23T09:22:31;29.20;;;13.23;;
21848;SDS011;11089;49.852;19.700;2023-01-23T09:25:32;24.92;;;12.50;;
21848;SDS011;11089;49.852;19.700;2023-01-23T09:28:34;27.20;;;13.02;;
21848;SDS011;11089;49.852;19.700;2023-01-23T09:31:36;26.63;;;11.93;;
21848;SDS011;11089;49.852;19.700;2023-01-23T09:34:37;27.70;;;12.63;;
21848;SDS011;11089;49.852;19.700;2023-01-23T09:37:38;23.95;;;11.73;;
21848;SDS011;11089;49.852;19.700;2023-01-23T09:40:54;27.27;;;12.75;;
21848;SDS011;11089;49.852;19.700;2023-01-23T09:43:58;25.77;;;11.95;;
21848;SDS011;11089;49.852;19.700;2023-01-23T09:47:16;24.02;;;12.25;;
21848;SDS011;11089;49.852;19.700;2023-01-23T09:53:39;26.27;;;11.93;;
21848;SDS011;11089;49.852;19.700;2023-01-23T09:56:42;26.65;;;12.73;;
21848;SDS011;11089;49.852;19.700;2023-01-23T09:59:48;22.50;;;11.35;;
21848;SDS011;11089;49.852;19.700;2023-01-23T10:02:52;27.60;;;12.38;;
21848;SDS011;11089;49.852;19.700;2023-01-23T10:12:31;23.80;;;11.20;;
21848;SDS011;11089;49.852;19.700;2023-01-23T10:15:56;23.33;;;11.48;;
21848;SDS011;11089;49.852;19.700;2023-01-23T10:25:34;52.97;;;23.25;;
21848;SDS011;11089;49.852;19.700;2023-01-23T10:28:37;36.75;;;18.45;;
21848;SDS011;11089;49.852;19.700;2023-01-23T10:31:48;31.77;;;14.25;;
21848;SDS011;11089;49.852;19.700;2023-01-23T10:34:54;29.60;;;13.88;;
21848;SDS011;11089;49.852;19.700;2023-01-23T10:38:08;26.10;;;13.25;;
21848;SDS011;11089;49.852;19.700;2023-01-23T10:41:25;29.30;;;13.75;;
21848;SDS011;11089;49.852;19.700;2023-01-23T10:44:26;27.70;;;13.10;;
21848;SDS011;11089;49.852;19.700;2023-01-23T10:50:35;27.00;;;13.50;;
21848;SDS011;11089;49.852;19.700;2023-01-23T10:53:38;25.55;;;12.32;;
21848;SDS011;11089;49.852;19.700;2023-01-23T10:56:50;23.38;;;11.02;;
21848;SDS011;11089;49.852;19.700;2023-01-23T11:00:03;21.15;;;10.73;;
21848;SDS011;11089;49.852;19.700;2023-01-23T11:06:33;17.17;;;9.57;;
21848;SDS011;11089;49.852;19.700;2023-01-23T11:09:43;21.10;;;11.40;;
21848;SDS011;11089;49.852;19.700;2023-01-23T11:12:48;19.52;;;9.82;;
21848;SDS011;11089;49.852;19.700;2023-01-23T11:15:50;20.98;;;9.95;;
21848;SDS011;11089;49.852;19.700;2023-01-23T11:19:02;22.45;;;11.13;;
21848;SDS011;11089;49.852;19.700;2023-01-23T11:28:47;43.65;;;18.60;;
21848;SDS011;11089;49.852;19.700;2023-01-23T11:31:59;22.75;;;11.20;;
21848;SDS011;11089;49.852;19.700;2023-01-23T11:35:14;18.35;;;10.30;;
21848;SDS011;11089;49.852;19.700;2023-01-23T11:38:21;45.95;;;21.13;;
21848;SDS011;11089;49.852;19.700;2023-01-23T11:41:27;101.72;;;36.80;;
21848;SDS011;11089;49.852;19.700;2023-01-23T11:44:29;117.22;;;44.40;;
21848;SDS011;11089;49.852;19.700;2023-01-23T11:50:53;101.90;;;39.55;;
21848;SDS011;11089;49.852;19.700;2023-01-23T11:57:38;45.10;;;20.63;;
21848;SDS011;11089;49.852;19.700;2023-01-23T12:00:50;24.27;;;12.40;;
21848;SDS011;11089;49.852;19.700;2023-01-23T12:07:23;22.35;;;11.82;;
21848;SDS011;11089;49.852;19.700;2023-01-23T12:10:26;24.90;;;12.52;;
21848;SDS011;11089;49.852;19.700;2023-01-23T12:13:48;25.70;;;12.75;;
21848;SDS011;11089;49.852;19.700;2023-01-23T12:26:55;21.10;;;11.20;;
21848;SDS011;11089;49.852;19.700;2023-01-23T12:33:07;21.63;;;10.43;;
21848;SDS011;11089;49.852;19.700;2023-01-23T12:43:00;25.58;;;12.07;;
21848;SDS011;11089;49.852;19.700;2023-01-23T12:46:11;22.45;;;12.45;;
21848;SDS011;11089;49.852;19.700;2023-01-23T12:49:22;23.63;;;12.25;;
21848;SDS011;11089;49.852;19.700;2023-01-23T12:52:34;24.58;;;11.65;;
21848;SDS011;11089;49.852;19.700;2023-01-23T12:58:43;28.70;;;13.05;;
21848;SDS011;11089;49.852;19.700;2023-01-23T13:08:39;25.30;;;12.25;;
21848;SDS011;11089;49.852;19.700;2023-01-23T13:12:04;25.00;;;12.27;;
21848;SDS011;11089;49.852;19.700;2023-01-23T13:18:22;29.90;;;14.15;;
21848;SDS011;11089;49.852;19.700;2023-01-23T13:21:26;28.65;;;14.25;;
21848;SDS011;11089;49.852;19.700;2023-01-23T13:24:48;27.20;;;12.60;;
21848;SDS011;11089;49.852;19.700;2023-01-23T13:34:41;29.17;;;13.93;;
21848;SDS011;11089;49.852;19.700;2023-01-23T13:37:46;30.10;;;14.07;;
21848;SDS011;11089;49.852;19.700;2023-01-23T13:44:24;21.70;;;11.60;;
21848;SDS011;11089;49.852;19.700;2023-01-23T13:47:29;21.77;;;11.40;;
21848;SDS011;11089;49.852;19.700;2023-01-23T13:50:51;20.42;;;10.80;;
21848;SDS011;11089;49.852;19.700;2023-01-23T13:53:56;22.10;;;11.00;;
21848;SDS011;11089;49.852;19.700;2023-01-23T13:57:11;18.95;;;10.70;;
21848;SDS011;11089;49.852;19.700;2023-01-23T14:00:16;20.52;;;10.77;;
21848;SDS011;11089;49.852;19.700;2023-01-23T14:03:30;24.25;;;12.00;;
21848;SDS011;11089;49.852;19.700;2023-01-23T14:06:47;25.02;;;12.88;;
21848;SDS011;11089;49.852;19.700;2023-01-23T14:09:48;31.40;;;13.98;;
21848;SDS011;11089;49.852;19.700;2023-01-23T14:13:00;36.05;;;15.38;;
21848;SDS011;11089;49.852;19.700;2023-01-23T14:16:12;33.10;;;15.43;;
21848;SDS011;11089;49.852;19.700;2023-01-23T14:19:25;29.83;;;13.50;;
21848;SDS011;11089;49.852;19.700;2023-01-23T14:22:29;36.13;;;16.17;;
21848;SDS011;11089;49.852;19.700;2023-01-23T14:25:31;34.65;;;16.15;;
21848;SDS011;11089;49.852;19.700;2023-01-23T14:28:32;34.13;;;16.52;;
21848;SDS011;11089;49.852;19.700;2023-01-23T14:31:34;32.92;;;15.90;;
21848;SDS011;11089;49.852;19.700;2023-01-23T14:34:37;36.65;;;16.73;;
21848;SDS011;11089;49.852;19.700;2023-01-23T14:37:39;34.60;;;16.20;;
21848;SDS011;11089;49.852;19.700;2023-01-23T14:40:40;34.38;;;17.05;;
21848;SDS011;11089;49.852;19.700;2023-01-23T14:43:44;38.85;;;16.60;;
21848;SDS011;11089;49.852;19.700;2023-01-23T14:46:46;35.90;;;17.40;;
21848;SDS011;11089;49.852;19.700;2023-01-23T14:49:51;40.75;;;17.52;;
21848;SDS011;11089;49.852;19.700;2023-01-23T14:53:12;38.95;;;17.67;;
21848;SDS011;11089;49.852;19.700;2023-01-23T14:56:14;42.25;;;18.05;;
21848;SDS011;11089;49.852;19.700;2023-01-23T14:59:20;39.10;;;17.75;;
21848;SDS011;11089;49.852;19.700;2023-01-23T15:05:32;45.45;;;17.35;;
21848;SDS011;11089;49.852;19.700;2023-01-23T15:08:33;37.58;;;16.85;;
21848;SDS011;11089;49.852;19.700;2023-01-23T15:11:35;39.58;;;17.30;;
21848;SDS011;11089;49.852;19.700;2023-01-23T15:14:37;40.47;;;16.52;;
21848;SDS011;11089;49.852;19.700;2023-01-23T15:17:41;36.42;;;15.98;;
21848;SDS011;11089;49.852;19.700;2023-01-23T15:20:51;37.10;;;17.90;;
21848;SDS011;11089;49.852;19.700;2023-01-23T15:24:05;31.95;;;15.43;;
21848;SDS011;11089;49.852;19.700;2023-01-23T15:33:39;38.38;;;14.85;;
21848;SDS011;11089;49.852;19.700;2023-01-23T15:36:45;34.10;;;13.77;;
21848;SDS011;11089;49.852;19.700;2023-01-23T15:39:56;32.03;;;13.85;;
21848;SDS011;11089;49.852;19.700;2023-01-23T15:43:03;34.33;;;14.55;;
21848;SDS011;11089;49.852;19.700;2023-01-23T15:46:15;34.53;;;14.73;;
21848;SDS011;11089;49.852;19.700;2023-01-23T15:49:16;32.67;;;14.88;;
21848;SDS011;11089;49.852;19.700;2023-01-23T15:52:19;36.00;;;14.82;;
21848;SDS011;11089;49.852;19.700;2023-01-23T15:55:24;33.67;;;14.93;;
21848;SDS011;11089;49.852;19.700;2023-01-23T15:58:27;30.60;;;13.32;;
21848;SDS011;11089;49.852;19.700;2023-01-23T16:01:28;32.58;;;14.18;;
21848;SDS011;11089;49.852;19.700;2023-01-23T16:04:29;35.42;;;15.00;;
21848;SDS011;11089;49.852;19.700;2023-01-23T16:07:31;30.70;;;13.90;;
21848;SDS011;11089;49.852;19.700;2023-01-23T16:10:35;36.17;;;16.40;;
21848;SDS011;11089;49.852;19.700;2023-01-23T16:13:37;38.30;;;16.27;;
21848;SDS011;11089;49.852;19.700;2023-01-23T16:16:38;37.08;;;16.17;;
21848;SDS011;11089;49.852;19.700;2023-01-23T16:19:39;43.33;;;18.08;;
21848;SDS011;11089;49.852;19.700;2023-01-23T16:22:40;42.55;;;17.67;;
21848;SDS011;11089;49.852;19.700;2023-01-23T16:25:42;36.53;;;16.88;;
21848;SDS011;11089;49.852;19.700;2023-01-23T16:28:43;41.85;;;18.55;;
21848;SDS011;11089;49.852;19.700;2023-01-23T16:31:44;43.92;;;18.33;;
21848;SDS011;11089;49.852;19.700;2023-01-23T16:34:45;38.50;;;17.27;;
21848;SDS011;11089;49.852;19.700;2023-01-23T16:37:47;40.20;;;18.73;;
21848;SDS011;11089;49.852;19.700;2023-01-23T16:40:50;34.60;;;15.90;;
21848;SDS011;11089;49.852;19.700;2023-01-23T16:43:52;33.72;;;15.10;;
21848;SDS011;11089;49.852;19.700;2023-01-23T16:46:53;39.20;;;16.73;;
21848;SDS011;11089;49.852;19.700;2023-01-23T16:49:54;35.42;;;17.38;;
21848;SDS011;11089;49.852;19.700;2023-01-23T16:52:58;42.03;;;18.30;;
21848;SDS011;11089;49.852;19.700;2023-01-23T16:56:31;43.67;;;17.00;;
21848;SDS011;11089;49.852;19.700;2023-01-23T16:59:36;42.10;;;16.58;;
21848;SDS011;11089;49.852;19.700;2023-01-23T17:02:39;33.03;;;16.15;;
21848;SDS011;11089;49.852;19.700;2023-01-23T17:05:40;39.33;;;17.30;;
21848;SDS011;11089;49.852;19.700;2023-01-23T17:08:41;40.63;;;17.75;;
21848;SDS011;11089;49.852;19.700;2023-01-23T17:11:47;38.53;;;16.10;;
21848;SDS011;11089;49.852;19.700;2023-01-23T17:14:51;41.65;;;17.55;;
21848;SDS011;11089;49.852;19.700;2023-01-23T17:17:53;37.40;;;16.13;;
21848;SDS011;11089;49.852;19.700;2023-01-23T17:20:58;42.78;;;16.23;;
21848;SDS011;11089;49.852;19.700;2023-01-23T17:24:00;34.63;;;16.83;;
21848;SDS011;11089;49.852;19.700;2023-01-23T17:27:01;32.25;;;14.65;;
21848;SDS011;11089;49.852;19.700;2023-01-23T17:30:02;30.80;;;14.73;;
21848;SDS011;11089;49.852;19.700;2023-01-23T17:33:03;32.05;;;14.02;;
21848;SDS011;11089;49.852;19.700;2023-01-23T17:36:04;31.98;;;13.88;;
21848;SDS011;11089;49.852;19.700;2023-01-23T17:39:08;32.95;;;14.82;;
21848;SDS011;11089;49.852;19.700;2023-01-23T17:42:13;34.47;;;15.63;;
21848;SDS011;11089;49.852;19.700;2023-01-23T17:45:16;31.13;;;14.45;;
21848;SDS011;11089;49.852;19.700;2023-01-23T17:48:28;32.88;;;14.43;;
21848;SDS011;11089;49.852;19.700;2023-01-23T17:51:30;29.38;;;13.75;;
21848;SDS011;11089;49.852;19.700;2023-01-23T17:54:32;38.20;;;15.75;;
21848;SDS011;11089;49.852;19.700;2023-01-23T17:57:33;35.08;;;16.58;;
21848;SDS011;11089;49.852;19.700;2023-01-23T18:00:35;39.63;;;15.43;;
21848;SDS011;11089;49.852;19.700;2023-01-23T18:03:39;36.55;;;17.10;;
21848;SDS011;11089;49.852;19.700;2023-01-23T18:06:42;35.80;;;16.83;;
21848;SDS011;11089;49.852;19.700;2023-01-23T18:09:43;40.97;;;17.90;;
21848;SDS011;11089;49.852;19.700;2023-01-23T18:13:17;33.30;;;15.27;;
21848;SDS011;11089;49.852;19.700;2023-01-23T18:19:25;35.22;;;15.32;;
21848;SDS011;11089;49.852;19.700;2023-01-23T18:22:27;42.70;;;18.80;;
21848;SDS011;11089;49.852;19.700;2023-01-23T18:25:29;39.95;;;17.13;;
21848;SDS011;11089;49.852;19.700;2023-01-23T18:28:33;40.22;;;17.55;;
21848;SDS011;11089;49.852;19.700;2023-01-23T18:45:14;40.65;;;18.70;;
21848;SDS011;11089;49.852;19.700;2023-01-23T18:48:16;36.63;;;17.75;;
21848;SDS011;11089;49.852;19.700;2023-01-23T19:00:56;42.70;;;18.83;;
21848;SDS011;11089;49.852;19.700;2023-01-23T19:04:12;43.13;;;19.10;;
21848;SDS011;11089;49.852;19.700;2023-01-23T19:07:15;45.55;;;20.23;;
21848;SDS011;11089;49.852;19.700;2023-01-23T19:10:18;43.28;;;19.92;;
21848;SDS011;11089;49.852;19.700;2023-01-23T19:13:28;40.97;;;18.65;;
21848;SDS011;11089;49.852;19.700;2023-01-23T19:16:43;41.63;;;18.75;;
21848;SDS011;11089;49.852;19.700;2023-01-23T19:26:31;41.38;;;20.35;;
21848;SDS011;11089;49.852;19.700;2023-01-23T19:29:34;44.22;;;20.50;;
21848;SDS011;11089;49.852;19.700;2023-01-23T19:32:35;45.53;;;19.30;;
21848;SDS011;11089;49.852;19.700;2023-01-23T19:35:36;46.42;;;20.65;;
21848;SDS011;11089;49.852;19.700;2023-01-23T19:38:37;43.33;;;18.83;;
21848;SDS011;11089;49.852;19.700;2023-01-23T19:41:39;46.70;;;21.17;;
21848;SDS011;11089;49.852;19.700;2023-01-23T19:44:42;42.17;;;20.02;;
21848;SDS011;11089;49.852;19.700;2023-01-23T19:47:43;57.10;;;23.67;;